Time;durP1;ratioP1;P1;durP2;ratioP2;P2;SDS_P1;SDS_P2;PMS_P1;PMS_P2;Temp;Humidity;BMP_temperature;BMP_pressure;BME280_temperature;BME280_humidity;BME280_pressure;Samples;Min_cycle;Max_cycle;Signal;HPM_P1;HPM_P2
2023/10/06 00:00:19;;;;;;;6.25;3.45;;;;;;;7.43;100.00;99357.78;2501227;29;20053;-93
2023/10/06 00:01:49;;;;;;;7.20;3.53;;;;;;;7.44;100.00;99362.13;2511560;29;20143;-92
2023/10/06 00:03:06;;;;;;;6.45;3.47;;;;;;;7.38;100.00;99361.25;2517685;29;20088;-93
2023/10/06 00:04:22;;;;;;;7.30;3.50;;;;;;;7.40;100.00;99354.31;2515490;29;20045;-92
2023/10/06 00:05:38;;;;;;;7.40;3.60;;;;;;;7.32;100.00;99349.94;2507623;29;20061;-93
2023/10/06 00:06:54;;;;;;;6.88;3.90;;;;;;;7.20;100.00;99348.22;2505972;29;20140;-92
2023/10/06 00:08:11;;;;;;;8.23;3.85;;;;;;;7.39;100.00;99353.41;2518272;29;20049;-92
2023/10/06 00:09:28;;;;;;;5.40;3.40;;;;;;;7.53;100.00;99361.25;2522496;29;20055;-93
2023/10/06 00:10:54;;;;;;;8.77;3.80;;;;;;;7.27;100.00;99358.66;2521966;29;20061;-93
2023/10/06 00:12:13;;;;;;;8.70;3.55;;;;;;;7.33;100.00;99362.13;2521793;29;20503;-93
2023/10/06 00:13:29;;;;;;;8.05;3.20;;;;;;;7.29;100.00;99356.91;2513223;29;20080;-93
2023/10/06 00:14:48;;;;;;;5.97;3.20;;;;;;;7.09;100.00;99354.28;2515969;29;20600;-92
2023/10/06 00:16:07;;;;;;;5.90;3.50;;;;;;;7.16;100.00;99362.13;2513239;29;20073;-93
2023/10/06 00:17:28;;;;;;;6.85;3.63;;;;;;;7.23;100.00;99365.59;2522329;29;20052;-93
2023/10/06 00:18:44;;;;;;;6.30;3.47;;;;;;;7.31;100.00;99365.59;2516864;29;20485;-93
2023/10/06 00:20:00;;;;;;;6.35;3.70;;;;;;;7.38;100.00;99369.91;2507046;29;20056;-92
2023/10/06 00:21:15;;;;;;;6.25;3.28;;;;;;;7.46;100.00;99362.97;2508251;29;20080;-93
2023/10/06 00:22:31;;;;;;;7.18;3.22;;;;;;;7.48;100.00;99374.28;2522079;29;20048;-92
2023/10/06 00:23:47;;;;;;;7.00;3.55;;;;;;;7.49;100.00;99372.53;2524031;29;20079;-93
2023/10/06 00:25:11;;;;;;;5.85;3.10;;;;;;;7.49;100.00;99365.59;2526450;29;20260;-91
2023/10/06 00:26:27;;;;;;;6.70;3.50;;;;;;;7.46;100.00;99370.81;2516089;29;20049;-92
2023/10/06 00:27:46;;;;;;;5.70;3.40;;;;;;;7.44;100.00;99371.66;2514930;29;20131;-93
2023/10/06 00:29:02;;;;;;;5.80;3.15;;;;;;;7.47;100.00;99366.44;2514001;29;20492;-92
2023/10/06 00:30:20;;;;;;;5.55;3.08;;;;;;;7.45;100.00;99368.19;2514583;29;20053;-93
2023/10/06 00:31:35;;;;;;;4.88;3.38;;;;;;;7.49;100.00;99360.38;2515947;29;20057;-93
2023/10/06 00:32:51;;;;;;;5.35;3.22;;;;;;;7.44;100.00;99361.25;2508814;29;20089;-92
2023/10/06 00:34:10;;;;;;;7.22;3.28;;;;;;;7.48;100.00;99361.25;2513434;29;20049;-93
2023/10/06 00:35:30;;;;;;;6.82;3.50;;;;;;;7.45;100.00;99361.25;2518667;29;20131;-92
2023/10/06 00:36:51;;;;;;;6.18;2.80;;;;;;;7.48;100.00;99357.78;2525872;29;20049;-93
2023/10/06 00:38:16;;;;;;;6.60;3.25;;;;;;;7.47;100.00;99362.13;2525878;29;20445;-92
2023/10/06 00:39:32;;;;;;;5.68;2.67;;;;;;;7.27;100.00;99363.88;2524812;29;20135;-91
2023/10/06 00:40:51;;;;;;;6.22;2.83;;;;;;;6.95;100.00;99362.06;2516015;29;20466;-93
2023/10/06 00:42:06;;;;;;;5.20;3.10;;;;;;;6.72;100.00;99362.91;2509747;29;20132;-91
2023/10/06 00:43:35;;;;;;;8.75;3.15;;;;;;;6.71;100.00;99348.16;2520065;29;20490;-91
2023/10/06 00:44:53;;;;;;;6.07;2.88;;;;;;;6.77;100.00;99354.25;2525742;29;20099;-92
2023/10/06 00:46:10;;;;;;;7.53;3.20;;;;;;;6.85;100.00;99351.66;2518561;29;20759;-92
2023/10/06 00:47:25;;;;;;;5.93;3.03;;;;;;;6.82;100.00;99353.38;2525820;29;20637;-92
2023/10/06 00:48:44;;;;;;;5.47;3.28;;;;;;;6.72;100.00;99355.97;2516067;29;20079;-92
2023/10/06 00:50:05;;;;;;;6.82;2.80;;;;;;;6.70;100.00;99360.28;2510057;29;20049;-92
2023/10/06 00:51:26;;;;;;;5.97;3.08;;;;;;;6.99;100.00;99359.47;2518946;29;20060;-92
2023/10/06 00:52:42;;;;;;;8.65;3.80;;;;;;;7.02;100.00;99361.22;2519201;29;20085;-92
2023/10/06 00:53:58;;;;;;;7.65;3.60;;;;;;;7.16;100.00;99359.50;2511588;29;20113;-93
2023/10/06 00:55:14;;;;;;;9.65;3.45;;;;;;;7.12;100.00;99357.75;2519920;29;20107;-92
2023/10/06 00:56:31;;;;;;;7.75;3.10;;;;;;;7.18;100.00;99359.50;2515200;29;20097;-92
2023/10/06 00:57:53;;;;;;;7.93;3.28;;;;;;;7.14;100.00;99366.47;2518919;29;20595;-92
2023/10/06 00:59:11;;;;;;;6.55;3.13;;;;;;;6.96;100.00;99358.59;2513907;29;20060;-92
2023/10/06 01:00:31;;;;;;;6.75;3.05;;;;;;;6.90;100.00;99365.53;2512992;29;20309;-93
2023/10/06 01:01:46;;;;;;;6.65;3.13;;;;;;;6.96;100.00;99361.22;2518885;29;20052;-92
2023/10/06 01:03:09;;;;;;;6.07;3.33;;;;;;;6.96;100.00;99358.59;2524130;29;20469;-93
2023/10/06 01:04:25;;;;;;;5.95;3.00;;;;;;;7.02;100.00;99358.63;2513797;29;20113;-92
2023/10/06 01:05:45;;;;;;;5.53;2.63;;;;;;;7.03;100.00;99361.22;2509139;29;20049;-93
2023/10/06 01:07:01;;;;;;;6.65;2.75;;;;;;;7.04;100.00;99357.75;2519231;29;20087;-93
2023/10/06 01:08:17;;;;;;;5.40;3.38;;;;;;;7.06;100.00;99366.44;2524634;29;20068;-92
2023/10/06 01:09:35;;;;;;;7.05;3.25;;;;;;;7.12;100.00;99362.97;2520989;29;20060;-93
2023/10/06 01:11:06;;;;;;;6.13;3.20;;;;;;;7.13;100.00;99367.31;2515363;29;20060;-93
2023/10/06 01:12:31;;;;;;;5.82;2.95;;;;;;;7.12;100.00;99365.56;2512519;29;20076;-93
2023/10/06 01:13:54;;;;;;;5.32;2.80;;;;;;;7.05;100.00;99358.63;2513574;29;20045;-92
2023/10/06 01:15:19;;;;;;;6.43;2.70;;;;;;;6.99;100.00;99359.47;2499930;29;20050;-92
2023/10/06 01:16:35;;;;;;;6.25;2.88;;;;;;;6.95;100.00;99362.06;2513277;29;20536;-92
2023/10/06 01:17:54;;;;;;;5.35;2.55;;;;;;;6.93;100.00;99362.94;2513780;29;20053;-92
2023/10/06 01:19:28;;;;;;;5.22;2.83;;;;;;;6.99;100.00;99361.25;2509427;29;20141;-93
2023/10/06 01:20:44;;;;;;;6.85;2.90;;;;;;;6.98;100.00;99365.56;2513344;29;20956;-95
2023/10/06 01:22:20;;;;;;;5.35;2.95;;;;;;;7.01;100.00;99362.94;2511855;29;20061;-92
2023/10/06 01:23:38;;;;;;;7.68;3.00;;;;;;;7.08;100.00;99361.22;2514279;29;20045;-93
2023/10/06 01:24:54;;;;;;;4.72;2.70;;;;;;;7.09;100.00;99369.91;2508356;29;20219;-93
2023/10/06 01:26:13;;;;;;;4.85;2.83;;;;;;;7.10;100.00;99363.84;2518777;29;20498;-93
2023/10/06 01:27:29;;;;;;;5.60;2.97;;;;;;;7.13;100.00;99362.13;2515133;29;20060;-93
2023/10/06 01:28:45;;;;;;;7.25;3.03;;;;;;;6.67;100.00;99362.91;2518931;29;20059;-93
2023/10/06 01:31:33;;;;;;;5.50;2.83;;;;;;;6.57;100.00;99356.81;2518934;29;20051;-92
2023/10/06 01:32:50;;;;;;;6.55;2.53;;;;;;;6.67;100.00;99359.41;2514214;29;20091;-93
2023/10/06 01:34:08;;;;;;;7.72;3.20;;;;;;;6.49;100.00;99354.16;2508647;29;20045;-94
2023/10/06 01:35:23;;;;;;;8.80;3.03;;;;;;;6.35;100.00;99359.31;2509548;29;20052;-93
2023/10/06 01:36:39;;;;;;;5.80;3.00;;;;;;;6.27;100.00;99360.16;2507242;29;20046;-94
2023/10/06 01:38:00;;;;;;;5.72;3.15;;;;;;;6.43;100.00;99367.16;2513495;29;20870;-93
2023/10/06 01:39:16;;;;;;;7.30;3.40;;;;;;;6.20;100.00;99369.66;2517288;29;20048;-93
2023/10/06 01:41:47;;;;;;;4.82;2.72;;;;;;;5.91;100.00;99375.53;2518978;29;20053;-93
2023/10/06 01:43:09;;;;;;;5.85;3.15;;;;;;;5.90;100.00;99373.81;2513282;29;20072;-93
2023/10/06 01:44:27;;;;;;;6.55;2.90;;;;;;;6.07;100.00;99372.19;2518695;29;20125;-93
2023/10/06 01:45:45;;;;;;;6.45;3.05;;;;;;;6.26;100.00;99376.63;2512988;29;20050;-93
2023/10/06 01:47:04;;;;;;;6.70;2.75;;;;;;;6.40;100.00;99374.06;2513691;29;20142;-93
2023/10/06 01:49:36;;;;;;;6.53;2.70;;;;;;;6.43;100.00;99382.75;2524555;29;20056;-92
2023/10/06 01:50:54;;;;;;;5.05;2.70;;;;;;;6.50;100.00;99381.03;2515357;29;20057;-93
2023/10/06 01:52:13;;;;;;;6.47;2.72;;;;;;;6.55;100.00;99384.53;2522470;29;20056;-92
2023/10/06 01:53:32;;;;;;;4.63;2.50;;;;;;;6.62;100.00;99381.09;2515006;29;20084;-93
2023/10/06 01:54:48;;;;;;;4.93;2.47;;;;;;;6.71;100.00;99384.59;2515852;29;20045;-92
2023/10/06 01:56:07;;;;;;;5.13;2.78;;;;;;;6.65;100.00;99382.84;2521588;29;20055;-92
2023/10/06 01:57:24;;;;;;;4.70;2.60;;;;;;;6.62;100.00;99386.31;2515092;29;20056;-92
2023/10/06 01:58:40;;;;;;;5.90;2.92;;;;;;;6.67;100.00;99383.72;2509079;29;20052;-93
2023/10/06 01:59:55;;;;;;;5.22;3.08;;;;;;;6.70;100.00;99388.03;2511177;29;20065;-92
2023/10/06 02:01:16;;;;;;;8.10;2.95;;;;;;;6.77;100.00;99382.88;2511312;29;20061;-92
2023/10/06 02:02:33;;;;;;;5.72;3.15;;;;;;;6.77;100.00;99382.00;2518200;29;20055;-93
2023/10/06 02:03:49;;;;;;;5.60;3.10;;;;;;;6.74;100.00;99384.59;2510771;29;20067;-92
2023/10/06 02:05:08;;;;;;;4.82;2.78;;;;;;;6.61;100.00;99386.28;2507826;29;20045;-92
2023/10/06 02:06:26;;;;;;;5.00;2.97;;;;;;;6.31;100.00;99387.91;2507716;29;20097;-93
2023/10/06 02:07:44;;;;;;;4.80;3.15;;;;;;;6.40;100.00;99381.88;2502059;29;20061;-92
2023/10/06 02:09:00;;;;;;;6.38;2.88;;;;;;;6.57;100.00;99395.84;2506853;29;20093;-92
2023/10/06 02:10:18;;;;;;;6.47;3.00;;;;;;;6.64;100.00;99391.53;2515374;29;20052;-92
2023/10/06 02:11:34;;;;;;;5.10;2.90;;;;;;;6.61;100.00;99388.88;2519597;29;20101;-92
2023/10/06 02:12:49;;;;;;;6.30;3.03;;;;;;;6.57;100.00;99389.75;2511064;29;20052;-91
2023/10/06 02:14:05;;;;;;;4.97;2.92;;;;;;;6.26;100.00;99387.88;2516643;29;20408;-94
2023/10/06 02:15:20;;;;;;;4.65;2.55;;;;;;;6.05;100.00;99389.50;2515541;29;20140;-92
2023/10/06 02:16:37;;;;;;;5.53;2.85;;;;;;;6.12;100.00;99386.94;2507750;29;20101;-92
2023/10/06 02:17:53;;;;;;;7.40;2.90;;;;;;;6.15;100.00;99390.44;2507529;29;20086;-92
2023/10/06 02:19:11;;;;;;;5.28;2.97;;;;;;;6.02;100.00;99381.72;2508309;29;20448;-92
2023/10/06 02:21:44;;;;;;;4.68;2.97;;;;;;;6.15;100.00;99380.03;2516735;29;20394;-92
2023/10/06 02:22:59;;;;;;;7.10;2.97;;;;;;;6.19;100.00;99376.56;2514167;29;20080;-92
2023/10/06 02:24:18;;;;;;;7.22;2.95;;;;;;;6.02;100.00;99381.72;2508786;29;20059;-91
2023/10/06 02:25:34;;;;;;;7.60;2.78;;;;;;;5.91;100.00;99375.53;2518850;29;20096;-91
2023/10/06 02:27:02;;;;;;;3.95;2.75;;;;;;;5.89;100.00;99379.84;2517841;29;20072;-92
2023/10/06 02:28:20;;;;;;;6.47;2.72;;;;;;;5.85;100.00;99371.16;2516422;29;20052;-91
2023/10/06 02:29:36;;;;;;;7.80;3.10;;;;;;;5.92;100.00;99370.31;2510500;29;20146;-92
2023/10/06 02:30:55;;;;;;;5.95;2.55;;;;;;;5.78;100.00;99372.84;2516593;29;20100;-92
2023/10/06 02:32:10;;;;;;;6.55;2.95;;;;;;;5.90;100.00;99374.66;2523106;29;20049;-92
2023/10/06 02:33:27;;;;;;;6.53;3.13;;;;;;;6.03;100.00;99373.03;2513113;29;20540;-92
2023/10/06 02:34:45;;;;;;;6.13;2.95;;;;;;;6.15;100.00;99369.63;2516710;29;20063;-91
2023/10/06 02:36:03;;;;;;;5.60;2.85;;;;;;;6.26;100.00;99369.66;2522703;29;20041;-92
2023/10/06 02:37:22;;;;;;;7.20;3.22;;;;;;;6.26;100.00;99374.88;2515643;29;20048;-92
2023/10/06 02:38:46;;;;;;;5.45;2.90;;;;;;;6.14;100.00;99377.41;2515236;29;20072;-92
2023/10/06 02:40:10;;;;;;;5.80;2.67;;;;;;;6.24;100.00;99370.53;2509320;29;20080;-92
2023/10/06 02:41:27;;;;;;;4.75;2.72;;;;;;;6.31;100.00;99369.69;2519744;29;20076;-92
2023/10/06 02:42:52;;;;;;;4.93;2.63;;;;;;;6.30;100.00;99370.56;2524122;29;20075;-92
2023/10/06 02:44:22;;;;;;;5.80;2.70;;;;;;;6.33;100.00;99373.16;2512588;29;20117;-92
2023/10/06 02:45:40;;;;;;;4.82;2.88;;;;;;;6.35;100.00;99361.03;2510073;29;20504;-92
2023/10/06 02:46:59;;;;;;;4.68;2.80;;;;;;;6.40;100.00;99363.66;2510873;29;20053;-91
2023/10/06 02:48:17;;;;;;;5.60;3.35;;;;;;;6.45;100.00;99368.03;2509314;29;20061;-91
2023/10/06 02:49:35;;;;;;;5.15;2.72;;;;;;;6.47;100.00;99365.44;2517240;29;20052;-92
2023/10/06 02:50:55;;;;;;;5.60;2.67;;;;;;;6.27;100.00;99362.75;2514563;29;20458;-93
2023/10/06 02:52:15;;;;;;;6.00;2.95;;;;;;;5.92;100.00;99365.13;2508551;29;20148;-92
2023/10/06 02:53:35;;;;;;;5.43;2.90;;;;;;;5.61;100.00;99366.69;2513719;29;20045;-92
2023/10/06 02:56:28;;;;;;;5.47;3.13;;;;;;;5.47;100.00;99363.97;2519906;29;20108;-92
2023/10/06 02:57:50;;;;;;;4.78;2.53;;;;;;;5.58;100.00;99366.63;2523557;29;20090;-92
2023/10/06 02:59:21;;;;;;;4.97;2.83;;;;;;;5.59;100.00;99365.81;2514047;29;20515;-92
2023/10/06 03:00:37;;;;;;;6.38;3.03;;;;;;;5.61;100.00;99370.13;2510487;29;20053;-91
2023/10/06 03:01:57;;;;;;;4.88;3.08;;;;;;;5.83;100.00;99370.28;2510696;29;20481;-92
2023/10/06 03:03:17;;;;;;;4.38;2.67;;;;;;;5.73;100.00;99376.28;2516877;29;20061;-92
2023/10/06 03:04:36;;;;;;;4.35;2.60;;;;;;;5.55;100.00;99371.81;2512051;29;20052;-92
2023/10/06 03:05:52;;;;;;;6.32;2.92;;;;;;;5.67;100.00;99371.91;2512000;29;20101;-93
2023/10/06 03:07:18;;;;;;;7.22;3.17;;;;;;;5.83;100.00;99377.19;2507165;29;20088;-92
2023/10/06 03:08:35;;;;;;;7.65;2.72;;;;;;;5.84;100.00;99368.53;2509655;29;20524;-93
2023/10/06 03:09:50;;;;;;;4.75;3.03;;;;;;;5.97;100.00;99378.16;2507921;29;20471;-93
2023/10/06 03:11:09;;;;;;;6.40;3.20;;;;;;;6.00;100.00;99379.91;2518675;29;20052;-92
2023/10/06 03:13:43;;;;;;;4.90;2.85;;;;;;;6.05;100.00;99380.84;2524651;29;20432;-92
2023/10/06 03:14:58;;;;;;;5.63;3.10;;;;;;;6.08;100.00;99381.72;2513568;29;20053;-93
2023/10/06 03:16:19;;;;;;;7.32;3.92;;;;;;;6.10;100.00;99373.06;2517850;29;20555;-92
2023/10/06 03:17:35;;;;;;;6.15;2.83;;;;;;;6.07;100.00;99374.78;2512318;29;20612;-92
2023/10/06 03:18:52;;;;;;;6.45;2.78;;;;;;;5.97;100.00;99370.34;2523376;29;20063;-93
2023/10/06 03:20:11;;;;;;;7.85;3.03;;;;;;;5.92;100.00;99378.13;2518618;29;20044;-93
2023/10/06 03:21:30;;;;;;;6.50;3.30;;;;;;;5.97;100.00;99380.75;2517908;29;20059;-92
2023/10/06 03:22:48;;;;;;;6.55;3.10;;;;;;;5.99;100.00;99383.38;2513965;29;20072;-92
2023/10/06 03:24:05;;;;;;;5.78;3.17;;;;;;;5.80;100.00;99378.94;2508147;29;20441;-92
2023/10/06 03:25:22;;;;;;;5.25;2.85;;;;;;;5.84;100.00;99377.22;2516981;29;20076;-93
2023/10/06 03:26:44;;;;;;;7.10;2.85;;;;;;;5.79;100.00;99382.38;2522778;29;20056;-93
2023/10/06 03:28:02;;;;;;;7.13;3.35;;;;;;;5.65;100.00;99376.22;2512812;29;20116;-93
2023/10/06 03:29:28;;;;;;;7.30;3.38;;;;;;;5.43;100.00;99383.00;2517055;29;20053;-93
2023/10/06 03:30:45;;;;;;;6.05;2.88;;;;;;;5.41;100.00;99379.53;2522715;29;20072;-93
2023/10/06 03:32:01;;;;;;;5.43;2.95;;;;;;;5.43;100.00;99381.25;2522446;29;20048;-94
2023/10/06 03:33:19;;;;;;;4.15;2.58;;;;;;;5.47;100.00;99389.94;2513153;29;20499;-93
2023/10/06 03:34:34;;;;;;;5.53;2.70;;;;;;;5.72;100.00;99391.00;2509306;29;20561;-93
2023/10/06 03:35:54;;;;;;;4.47;2.80;;;;;;;5.76;100.00;99392.78;2507304;29;20053;-94
2023/10/06 03:37:10;;;;;;;4.93;2.70;;;;;;;5.58;100.00;99384.81;2513352;29;20481;-94
2023/10/06 03:38:27;;;;;;;6.25;2.97;;;;;;;5.49;100.00;99389.09;2512484;29;20052;-93
2023/10/06 03:39:50;;;;;;;6.63;2.92;;;;;;;5.30;100.00;99388.06;2513024;29;20432;-93
2023/10/06 03:41:24;;;;;;;8.52;2.78;;;;;;;5.64;100.00;99384.88;2520008;29;20436;-93
2023/10/06 03:42:40;;;;;;;5.00;3.03;;;;;;;5.68;100.00;99393.56;2506421;29;20068;-92
2023/10/06 03:43:59;;;;;;;4.97;3.00;;;;;;;5.74;100.00;99394.50;2518568;29;20596;-93
2023/10/06 03:45:26;;;;;;;5.38;2.67;;;;;;;5.73;100.00;99384.97;2525344;29;20053;-93
2023/10/06 03:46:42;;;;;;;4.00;2.90;;;;;;;5.76;100.00;99387.56;2513022;29;20181;-93
2023/10/06 03:48:08;;;;;;;6.95;3.17;;;;;;;5.73;100.00;99384.97;2512374;29;20061;-94
2023/10/06 03:49:26;;;;;;;4.13;2.70;;;;;;;5.74;100.00;99391.91;2521064;29;20136;-93
2023/10/06 03:50:43;;;;;;;4.78;2.90;;;;;;;5.59;100.00;99390.03;2515465;29;20072;-94
2023/10/06 03:51:59;;;;;;;4.53;2.67;;;;;;;5.33;100.00;99388.09;2516915;29;20575;-95
2023/10/06 03:53:14;;;;;;;6.57;3.00;;;;;;;5.33;100.00;99389.84;2505058;29;20060;-93
2023/10/06 03:54:30;;;;;;;6.72;3.20;;;;;;;5.50;100.00;99390.84;2508111;29;20505;-94
2023/10/06 03:55:46;;;;;;;5.50;2.95;;;;;;;5.57;100.00;99388.28;2512260;29;20057;-93
2023/10/06 03:57:01;;;;;;;7.25;3.15;;;;;;;5.35;100.00;99386.38;2510560;29;20056;-95
2023/10/06 03:58:18;;;;;;;5.43;2.95;;;;;;;5.17;100.00;99387.13;2522178;29;20062;-94
2023/10/06 03:59:33;;;;;;;6.18;2.80;;;;;;;5.06;100.00;99380.94;2519289;29;20462;-95
2023/10/06 04:00:49;;;;;;;8.30;3.08;;;;;;;5.21;100.00;99382.78;2522909;29;20085;-93
2023/10/06 04:02:05;;;;;;;5.95;2.78;;;;;;;5.31;100.00;99383.78;2523305;29;20048;-93
2023/10/06 04:03:21;;;;;;;6.15;3.35;;;;;;;5.07;100.00;99393.06;2511891;29;20110;-94
2023/10/06 04:04:39;;;;;;;6.85;3.45;;;;;;;5.41;100.00;99388.16;2514970;29;20049;-94
2023/10/06 04:05:54;;;;;;;5.07;3.10;;;;;;;5.63;100.00;99380.56;2518299;29;20637;-93
2023/10/06 04:07:10;;;;;;;5.20;3.10;;;;;;;5.75;100.00;99388.44;2520563;29;20053;-94
2023/10/06 04:08:27;;;;;;;6.90;3.13;;;;;;;5.75;100.00;99383.25;2513626;29;20076;-94
2023/10/06 04:09:49;;;;;;;6.80;3.45;;;;;;;5.71;100.00;99386.66;2516364;29;20095;-95
2023/10/06 04:11:05;;;;;;;6.30;2.80;;;;;;;5.52;100.00;99388.28;2520175;29;20082;-93
2023/10/06 04:12:20;;;;;;;5.85;2.92;;;;;;;5.39;100.00;99384.69;2515611;29;20454;-94
2023/10/06 04:13:38;;;;;;;6.57;3.10;;;;;;;5.21;100.00;99380.19;2521640;29;20093;-94
2023/10/06 04:14:54;;;;;;;4.60;2.97;;;;;;;4.97;100.00;99379.13;2520578;29;20078;-93
2023/10/06 04:16:13;;;;;;;5.75;2.78;;;;;;;5.18;100.00;99380.19;2522824;29;20053;-93
2023/10/06 04:17:30;;;;;;;6.30;2.90;;;;;;;5.08;100.00;99381.81;2525766;29;20059;-93
2023/10/06 04:18:47;;;;;;;6.93;3.20;;;;;;;5.28;100.00;99388.91;2513146;29;20064;-94
2023/10/06 04:20:06;;;;;;;9.60;3.45;;;;;;;5.23;100.00;99383.66;2509591;29;20049;-93
2023/10/06 04:21:24;;;;;;;5.10;3.22;;;;;;;5.29;100.00;99377.66;2515957;29;20053;-94
2023/10/06 04:22:39;;;;;;;6.07;3.22;;;;;;;5.29;100.00;99380.25;2511144;29;20497;-93
2023/10/06 04:23:56;;;;;;;5.07;2.92;;;;;;;5.49;100.00;99383.03;2521609;29;20096;-94
2023/10/06 04:25:12;;;;;;;5.68;3.20;;;;;;;5.62;100.00;99378.81;2529849;29;20069;-94
2023/10/06 04:26:27;;;;;;;6.72;3.38;;;;;;;5.60;100.00;99378.78;2509028;29;20064;-93
2023/10/06 04:27:43;;;;;;;7.85;3.40;;;;;;;5.59;100.00;99382.25;2522368;29;20056;-94
2023/10/06 04:29:04;;;;;;;7.20;3.25;;;;;;;5.60;100.00;99377.94;2513343;29;20181;-93
2023/10/06 04:30:21;;;;;;;5.88;2.95;;;;;;;5.56;100.00;99383.94;2510437;29;20041;-93
2023/10/06 04:31:37;;;;;;;5.55;2.97;;;;;;;5.54;100.00;99380.47;2527625;29;20040;-94
2023/10/06 04:32:53;;;;;;;8.07;3.20;;;;;;;5.49;100.00;99383.91;2519106;29;20516;-94
2023/10/06 04:34:10;;;;;;;5.82;2.72;;;;;;;5.29;100.00;99380.25;2513134;29;20418;-94
2023/10/06 04:35:26;;;;;;;5.15;3.25;;;;;;;5.44;100.00;99375.19;2519032;29;20083;-95
2023/10/06 04:36:42;;;;;;;5.50;2.88;;;;;;;5.53;100.00;99373.53;2522058;29;20048;-94
2023/10/06 04:37:59;;;;;;;5.57;2.85;;;;;;;5.57;100.00;99376.19;2522780;29;20615;-94
2023/10/06 04:39:16;;;;;;;4.65;2.45;;;;;;;5.44;100.00;99367.41;2528147;29;20166;-94
2023/10/06 04:40:33;;;;;;;5.55;2.90;;;;;;;5.25;100.00;99374.19;2517685;29;20527;-94
2023/10/06 04:41:48;;;;;;;4.32;2.75;;;;;;;4.93;100.00;99373.03;2511134;29;20076;-94
2023/10/06 04:43:04;;;;;;;7.10;3.17;;;;;;;5.02;100.00;99371.38;2525643;29;20053;-95
2023/10/06 04:44:19;;;;;;;7.22;2.50;;;;;;;4.69;100.00;99378.84;2533576;29;20057;-94
2023/10/06 04:45:38;;;;;;;7.28;3.45;;;;;;;4.93;100.00;99378.22;2532128;29;20068;-93
2023/10/06 04:46:54;;;;;;;6.57;3.00;;;;;;;5.11;100.00;99381.00;2525430;29;20064;-94
2023/10/06 04:48:09;;;;;;;6.32;2.95;;;;;;;5.10;100.00;99382.69;2522978;29;20057;-95
2023/10/06 04:49:25;;;;;;;6.38;2.92;;;;;;;5.12;100.00;99383.59;2523532;29;20120;-93
2023/10/06 04:50:44;;;;;;;6.28;3.33;;;;;;;5.25;100.00;99378.50;2527748;29;20029;-95
2023/10/06 04:52:00;;;;;;;7.85;3.25;;;;;;;5.14;100.00;99378.41;2526292;29;20077;-94
2023/10/06 04:53:16;;;;;;;6.90;3.40;;;;;;;5.11;100.00;99371.47;2523386;29;20078;-95
2023/10/06 04:54:32;;;;;;;4.63;2.95;;;;;;;5.06;100.00;99373.16;2534061;29;20536;-94
2023/10/06 04:55:48;;;;;;;5.03;3.03;;;;;;;5.28;100.00;99368.13;2530095;29;20073;-94
2023/10/06 04:57:05;;;;;;;7.85;3.38;;;;;;;5.42;100.00;99366.53;2534432;29;20527;-94
2023/10/06 04:58:20;;;;;;;5.50;3.22;;;;;;;5.44;100.00;99371.75;2534960;29;20064;-93
2023/10/06 04:59:36;;;;;;;6.38;2.90;;;;;;;5.46;100.00;99373.50;2517417;29;20050;-95
2023/10/06 05:00:53;;;;;;;6.07;3.00;;;;;;;5.36;100.00;99376.88;2518493;29;20045;-95
2023/10/06 05:02:11;;;;;;;5.88;3.20;;;;;;;5.20;100.00;99374.16;2514054;29;20609;-93
2023/10/06 05:03:27;;;;;;;6.53;3.13;;;;;;;5.26;100.00;99375.06;2514277;29;20136;-92
2023/10/06 05:04:42;;;;;;;6.43;3.22;;;;;;;5.34;100.00;99373.41;2520661;29;20044;-93
2023/10/06 05:05:58;;;;;;;6.00;2.75;;;;;;;5.43;100.00;99372.59;2515095;29;20049;-93
2023/10/06 05:07:16;;;;;;;6.47;3.13;;;;;;;5.43;100.00;99370.84;2521134;29;20465;-92
2023/10/06 05:08:31;;;;;;;6.05;2.97;;;;;;;5.46;100.00;99372.63;2518597;29;20045;-94
2023/10/06 05:09:47;;;;;;;8.63;3.30;;;;;;;5.46;100.00;99373.50;2526792;29;20505;-94
2023/10/06 05:11:06;;;;;;;8.38;2.90;;;;;;;5.45;100.00;99369.16;2514261;29;20098;-93
2023/10/06 05:12:24;;;;;;;5.38;3.00;;;;;;;5.12;100.00;99368.00;2518598;29;20044;-93
2023/10/06 05:13:40;;;;;;;7.30;3.08;;;;;;;4.87;100.00;99365.16;2514556;29;20751;-93
2023/10/06 05:14:57;;;;;;;6.05;2.88;;;;;;;5.00;100.00;99373.06;2523254;29;20048;-93
2023/10/06 05:16:13;;;;;;;6.93;3.15;;;;;;;5.00;100.00;99367.88;2518326;29;20053;-93
2023/10/06 05:17:29;;;;;;;4.90;3.08;;;;;;;4.89;100.00;99366.09;2509974;29;20133;-93
2023/10/06 05:18:45;;;;;;;5.40;3.33;;;;;;;4.88;100.00;99374.69;2509275;29;20069;-95
2023/10/06 05:20:01;;;;;;;5.95;3.08;;;;;;;4.78;100.00;99372.88;2520593;29;20450;-93
2023/10/06 05:21:18;;;;;;;6.53;3.47;;;;;;;4.74;100.00;99376.28;2513806;29;20069;-94
2023/10/06 05:22:34;;;;;;;7.45;3.38;;;;;;;4.90;100.00;99374.72;2508803;29;20526;-93
2023/10/06 05:23:49;;;;;;;5.50;3.40;;;;;;;5.07;100.00;99377.50;2517799;29;20104;-94
2023/10/06 05:25:12;;;;;;;6.10;3.03;;;;;;;5.27;100.00;99392.38;2515653;29;20072;-95
2023/10/06 05:26:28;;;;;;;;;;;;;;;5.44;100.00;99387.31;2516130;29;20049;-95
2023/10/06 05:27:44;;;;;;;5.85;3.03;;;;;;;5.37;100.00;99386.41;2515732;29;19948;-92
2023/10/06 05:29:01;;;;;;;7.30;3.03;;;;;;;5.34;100.00;99400.22;2513350;29;20093;-94
2023/10/06 05:30:21;;;;;;;6.07;2.85;;;;;;;5.32;100.00;99401.94;2510818;29;20056;-95
2023/10/06 05:31:37;;;;;;;6.95;3.35;;;;;;;5.32;100.00;99396.75;2510709;29;20131;-94
2023/10/06 05:32:57;;;;;;;7.95;3.08;;;;;;;5.31;100.00;99396.75;2514539;29;20061;-93
2023/10/06 05:34:17;;;;;;;5.75;3.40;;;;;;;5.37;100.00;99408.03;2520327;29;20064;-94
2023/10/06 05:35:38;;;;;;;7.60;3.55;;;;;;;5.34;100.00;99400.22;2515421;29;20346;-94
2023/10/06 05:36:54;;;;;;;14.23;3.50;;;;;;;5.26;100.00;99414.00;2514695;29;20059;-94
2023/10/06 05:38:13;;;;;;;8.27;3.20;;;;;;;5.26;100.00;99417.47;2514743;29;20081;-94
2023/10/06 05:39:31;;;;;;;8.20;3.67;;;;;;;5.35;100.00;99416.69;2519795;29;20056;-94
2023/10/06 05:40:49;;;;;;;6.55;3.30;;;;;;;5.28;100.00;99407.97;2521474;29;20069;-94
2023/10/06 05:42:08;;;;;;;10.88;3.47;;;;;;;5.36;100.00;99418.44;2501572;29;20053;-93
2023/10/06 05:43:28;;;;;;;17.40;3.40;;;;;;;5.24;100.00;99416.59;2504915;29;20049;-94
2023/10/06 05:44:43;;;;;;;11.73;3.40;;;;;;;4.99;100.00;99418.94;2511812;29;20476;-94
2023/10/06 05:46:00;;;;;;;12.27;4.30;;;;;;;5.00;100.00;99420.69;2509423;29;20136;-94
2023/10/06 05:47:16;;;;;;;18.60;3.55;;;;;;;4.83;100.00;99417.91;2519345;29;20056;-94
2023/10/06 05:48:34;;;;;;;8.05;3.70;;;;;;;4.66;100.00;99415.09;2515695;29;20577;-93
2023/10/06 05:49:53;;;;;;;8.35;3.95;;;;;;;4.81;100.00;99414.41;2521412;29;20136;-93
2023/10/06 05:51:09;;;;;;;13.23;4.05;;;;;;;4.80;100.00;99416.13;2514469;29;20080;-93
2023/10/06 05:52:26;;;;;;;7.78;3.95;;;;;;;4.86;100.00;99420.53;2513988;29;20057;-94
2023/10/06 05:53:43;;;;;;;9.93;4.32;;;;;;;4.99;100.00;99424.13;2518626;29;20048;-94
2023/10/06 05:55:00;;;;;;;7.55;3.55;;;;;;;5.04;100.00;99431.97;2530078;29;20090;-95
2023/10/06 05:56:16;;;;;;;6.88;3.65;;;;;;;4.95;100.00;99424.94;2524289;29;20135;-94
2023/10/06 05:57:32;;;;;;;6.78;3.75;;;;;;;4.86;100.00;99427.44;2506203;29;20541;-93
2023/10/06 05:58:47;;;;;;;6.18;3.15;;;;;;;5.11;100.00;99427.72;2510773;29;20072;-93
2023/10/06 06:00:05;;;;;;;6.10;3.55;;;;;;;5.18;100.00;99429.50;2520733;29;20060;-93
2023/10/06 06:01:21;;;;;;;5.47;3.50;;;;;;;5.35;100.00;99434.88;2518086;29;20053;-93
2023/10/06 06:02:37;;;;;;;6.78;3.78;;;;;;;5.41;100.00;99439.25;2522646;29;20068;-94
2023/10/06 06:03:53;;;;;;;8.65;4.15;;;;;;;5.54;100.00;99437.63;2519634;29;20084;-94
2023/10/06 06:05:09;;;;;;;10.20;4.20;;;;;;;5.60;100.00;99432.50;2518228;29;20049;-93
2023/10/06 06:06:26;;;;;;;7.20;4.00;;;;;;;5.67;100.00;99433.41;2524084;29;20048;-94
2023/10/06 06:07:43;;;;;;;8.13;4.20;;;;;;;5.68;100.00;99440.34;2529518;29;20142;-94
2023/10/06 06:09:00;;;;;;;8.43;4.53;;;;;;;5.66;100.00;99435.13;2514010;29;20064;-96
2023/10/06 06:10:17;;;;;;;9.48;4.13;;;;;;;5.74;100.00;99440.38;2515067;29;20141;-93
2023/10/06 06:11:33;;;;;;;9.07;4.70;;;;;;;5.91;100.00;99443.13;2514880;29;20129;-94
2023/10/06 06:12:49;;;;;;;8.25;4.50;;;;;;;5.77;100.00;99446.47;2525191;29;20105;-93
2023/10/06 06:14:05;;;;;;;11.25;4.97;;;;;;;5.85;100.00;99448.25;2516226;29;20053;-93
2023/10/06 06:15:21;;;;;;;9.23;4.85;;;;;;;5.97;100.00;99444.88;2514358;29;20049;-93